createdAt,value
2023-03-13T00:01:28.365Z,9.40
2023-03-13T00:06:26.822Z,9.40
2023-03-13T00:08:56.304Z,9.60
2023-03-13T00:13:58.098Z,9.70
2023-03-13T00:18:58.096Z,9.80
2023-03-13T00:21:28.548Z,9.80
2023-03-13T00:23:57.405Z,9.90
2023-03-13T00:26:28.249Z,9.90
2023-03-13T00:28:58.013Z,10.00
2023-03-13T00:31:28.893Z,10.20
2023-03-13T00:34:00.463Z,9.90
2023-03-13T00:36:31.083Z,10.00
2023-03-13T00:39:00.778Z,10.00
2023-03-13T00:41:31.218Z,10.00
2023-03-13T00:44:01.106Z,10.00
2023-03-13T00:46:31.804Z,10.00
2023-03-13T00:51:29.732Z,10.00
2023-03-13T00:54:00.355Z,10.00
2023-03-13T00:56:29.977Z,10.00
2023-03-13T01:04:03.146Z,10.10
2023-03-13T01:06:35.580Z,10.10
2023-03-13T01:09:05.060Z,10.10
2023-03-13T01:11:36.555Z,10.10
2023-03-13T01:14:10.315Z,10.10
2023-03-13T01:16:39.920Z,10.10
2023-03-13T01:19:13.399Z,10.20
2023-03-13T01:21:43.407Z,10.10
2023-03-13T01:29:10.667Z,10.20
2023-03-13T01:36:38.967Z,10.20
2023-03-13T01:46:40.614Z,10.20
2023-03-13T01:49:21.934Z,10.20
2023-03-13T01:52:16.717Z,10.10
2023-03-13T01:55:10.594Z,10.20
2023-03-13T01:57:46.109Z,10.10
2023-03-13T02:00:18.567Z,10.00
2023-03-13T02:02:51.523Z,9.90
2023-03-13T02:05:24.053Z,9.80
2023-03-13T02:07:57.057Z,9.80
2023-03-13T02:10:27.753Z,9.80
2023-03-13T02:13:00.229Z,9.80
2023-03-13T02:15:29.972Z,9.70
2023-03-13T02:18:00.158Z,9.80
2023-03-13T02:23:04.204Z,9.90
2023-03-13T02:25:42.906Z,10.00
2023-03-13T02:28:17.044Z,10.10
2023-03-13T02:30:46.570Z,10.10
2023-03-13T02:33:16.186Z,10.10
2023-03-13T02:38:22.228Z,10.20
2023-03-13T02:40:53.457Z,10.20
2023-03-13T02:43:30.352Z,10.20
2023-03-13T02:46:09.304Z,10.20
2023-03-13T02:48:43.903Z,10.20
2023-03-13T02:51:21.238Z,10.20
2023-03-13T02:53:52.057Z,10.20
2023-03-13T02:56:26.765Z,10.30
2023-03-13T03:11:27.052Z,10.40
2023-03-13T03:16:34.090Z,10.50
2023-03-13T03:26:30.071Z,10.60
2023-03-13T03:33:58.757Z,10.80
2023-03-13T03:41:29.383Z,10.80
2023-03-13T03:43:58.039Z,10.80
2023-03-13T03:59:00.138Z,10.60
2023-03-13T04:01:38.876Z,10.60
2023-03-13T04:04:08.004Z,10.40
2023-03-13T04:06:36.910Z,10.50
2023-03-13T04:09:07.202Z,10.40
2023-03-13T04:14:09.261Z,10.50
2023-03-13T04:24:10.057Z,10.40
2023-03-13T04:29:10.768Z,10.40
2023-03-13T04:37:13.839Z,10.50
2023-03-13T04:40:12.598Z,10.50
2023-03-13T04:45:56.407Z,10.50
2023-03-13T05:02:46.587Z,10.70
2023-03-13T05:19:16.210Z,10.70
2023-03-13T05:22:02.020Z,10.70
2023-03-13T05:36:36.169Z,10.90
2023-03-13T05:45:12.065Z,11.10
2023-03-13T05:48:00.685Z,11.10
2023-03-13T05:53:23.343Z,11.20
2023-03-13T06:04:10.620Z,11.30
2023-03-13T06:09:11.745Z,11.30
2023-03-13T06:11:41.670Z,11.40
2023-03-13T06:14:10.003Z,11.40
2023-03-13T06:24:27.802Z,11.60
2023-03-13T06:31:53.545Z,11.60
2023-03-13T06:39:18.905Z,11.60
2023-03-13T06:41:48.647Z,11.60
2023-03-13T06:59:09.595Z,11.80
2023-03-13T07:16:47.353Z,12.20
2023-03-13T07:21:49.655Z,12.20
2023-03-13T07:27:04.130Z,12.30
2023-03-13T07:29:36.284Z,12.30
2023-03-13T07:32:21.330Z,12.40
2023-03-13T07:34:52.791Z,12.40
2023-03-13T07:42:22.860Z,12.60
2023-03-13T07:44:54.081Z,12.70
2023-03-13T07:47:26.713Z,12.90
2023-03-13T07:49:55.127Z,13.00
2023-03-13T08:02:17.720Z,13.50
2023-03-13T08:04:47.654Z,13.60
2023-03-13T08:22:08.627Z,13.80
2023-03-13T08:32:02.497Z,14.00
2023-03-13T08:34:30.763Z,14.00
2023-03-13T08:36:59.094Z,14.00
2023-03-13T08:39:28.719Z,13.90
2023-03-13T08:41:56.932Z,14.00
2023-03-13T08:56:49.224Z,13.90
2023-03-13T08:59:17.502Z,13.90
2023-03-13T09:01:45.700Z,13.90
2023-03-13T09:06:42.642Z,14.00
2023-03-13T09:09:12.607Z,14.00
2023-03-13T09:11:41.490Z,14.00
2023-03-13T09:14:12.606Z,14.00
2023-03-13T09:24:07.447Z,14.00
2023-03-13T09:26:35.704Z,14.00
2023-03-13T09:31:35.130Z,14.00
2023-03-13T09:39:01.826Z,14.10
2023-03-13T09:41:36.136Z,14.10
2023-03-13T09:44:12.315Z,14.20
2023-03-13T09:46:49.248Z,14.20
2023-03-13T09:49:30.955Z,14.20
2023-03-13T09:52:11.223Z,14.20
2023-03-13T09:54:44.430Z,14.30
2023-03-13T09:57:23.525Z,14.40
2023-03-13T09:59:59.003Z,14.50
2023-03-13T10:02:33.332Z,14.50
2023-03-13T10:05:11.629Z,14.50
2023-03-13T10:10:16.356Z,14.30
2023-03-13T10:12:47.797Z,14.20
2023-03-13T10:15:33.998Z,14.20
2023-03-13T10:18:16.719Z,14.10
2023-03-13T10:20:47.691Z,14.00
2023-03-13T10:23:22.614Z,14.00
2023-03-13T10:25:50.713Z,14.00
2023-03-13T10:28:22.421Z,13.90
2023-03-13T10:30:55.512Z,13.90
2023-03-13T10:33:28.094Z,14.00
2023-03-13T10:36:08.352Z,14.00
2023-03-13T10:38:48.728Z,14.20
2023-03-13T10:41:27.762Z,14.30
2023-03-13T10:44:00.245Z,14.40
2023-03-13T10:46:31.060Z,14.50
2023-03-13T10:49:04.649Z,14.50
2023-03-13T10:51:39.417Z,14.70
2023-03-13T10:54:23.429Z,14.70
2023-03-13T10:56:55.880Z,14.80
2023-03-13T10:59:27.641Z,14.90
2023-03-13T11:02:01.755Z,14.90
2023-03-13T11:04:37.509Z,15.00
2023-03-13T11:07:07.913Z,15.10
2023-03-13T11:12:10.755Z,15.50
2023-03-13T11:14:39.404Z,15.60
2023-03-13T11:17:20.978Z,15.60
2023-03-13T11:20:04.228Z,15.70
2023-03-13T11:23:01.927Z,15.70
2023-03-13T11:25:40.220Z,15.80
2023-03-13T11:28:29.175Z,15.90
2023-03-13T11:31:10.159Z,16.10
2023-03-13T11:33:53.053Z,16.40
2023-03-13T11:36:29.433Z,16.80
2023-03-13T11:39:21.599Z,17.30
2023-03-13T11:42:04.399Z,17.70
2023-03-13T11:44:47.996Z,17.80
2023-03-13T11:47:38.208Z,18.00
2023-03-13T11:50:41.521Z,18.20
2023-03-13T11:53:40.142Z,18.30
2023-03-13T11:56:16.132Z,18.60
2023-03-13T11:59:05.361Z,18.60
2023-03-13T12:01:39.700Z,18.40
2023-03-13T12:04:18.663Z,18.60
2023-03-13T12:06:53.370Z,18.60
2023-03-13T12:09:28.383Z,18.50
2023-03-13T12:12:03.791Z,18.10
2023-03-13T12:14:38.296Z,17.90
2023-03-13T12:17:11.875Z,17.70
2023-03-13T12:19:53.421Z,17.50
2023-03-13T12:22:28.688Z,17.40
2023-03-13T12:25:06.239Z,17.40
2023-03-13T12:27:40.358Z,17.40
2023-03-13T12:30:25.640Z,17.50
2023-03-13T12:33:04.592Z,17.50
2023-03-13T12:35:34.208Z,17.70
2023-03-13T12:38:11.455Z,17.90
2023-03-13T12:40:51.108Z,18.00
2023-03-13T12:43:23.233Z,18.10
2023-03-13T12:46:16.372Z,18.20
2023-03-13T12:49:14.592Z,18.20
2023-03-13T12:52:02.487Z,18.10
2023-03-13T12:54:51.269Z,17.80
2023-03-13T12:57:58.695Z,18.10
2023-03-13T13:00:31.378Z,18.20
2023-03-13T13:03:21.101Z,18.20
2023-03-13T13:06:07.699Z,18.20
2023-03-13T13:08:40.095Z,18.20
2023-03-13T13:11:57.017Z,18.20
2023-03-13T13:15:15.410Z,18.10
2023-03-13T13:18:15.721Z,18.10
2023-03-13T13:20:49.883Z,18.10
2023-03-13T13:23:35.018Z,18.20
2023-03-13T13:26:49.458Z,18.20
2023-03-13T13:29:57.834Z,18.30
2023-03-13T13:32:44.141Z,18.20
2023-03-13T13:35:36.580Z,18.50
2023-03-13T13:38:36.533Z,18.70
2023-03-13T13:41:22.334Z,18.80
2023-03-13T13:44:12.044Z,19.00
2023-03-13T13:46:46.853Z,19.20
2023-03-13T13:49:20.987Z,19.30
2023-03-13T13:52:36.632Z,19.20
2023-03-13T13:55:31.043Z,19.20
2023-03-13T13:58:04.183Z,19.30
2023-03-13T14:00:42.758Z,19.20
2023-03-13T14:03:24.517Z,19.10
2023-03-13T14:05:57.855Z,19.00
2023-03-13T14:08:30.756Z,18.90
2023-03-13T14:11:30.834Z,18.80
2023-03-13T14:14:16.781Z,18.80
2023-03-13T14:16:48.999Z,18.80
2023-03-13T14:19:26.756Z,18.80
2023-03-13T14:22:04.509Z,18.80
2023-03-13T14:24:35.783Z,18.70
2023-03-13T14:27:15.146Z,18.70
2023-03-13T14:29:43.513Z,18.80
2023-03-13T14:32:12.271Z,18.80
2023-03-13T14:37:37.093Z,18.80
2023-03-13T14:40:10.806Z,18.80
2023-03-13T14:42:42.663Z,18.90
2023-03-13T14:45:15.746Z,19.00
2023-03-13T14:50:15.815Z,19.20
2023-03-13T14:52:50.342Z,19.30
2023-03-13T14:55:35.269Z,19.60
2023-03-13T14:58:07.369Z,19.70
2023-03-13T15:00:40.328Z,19.70
2023-03-13T15:03:32.994Z,19.60
2023-03-13T15:06:24.192Z,19.50
2023-03-13T15:09:22.849Z,19.40
2023-03-13T15:11:58.646Z,19.40
2023-03-13T15:14:40.680Z,19.30
2023-03-13T15:17:19.585Z,19.30
2023-03-13T15:19:53.544Z,19.30
2023-03-13T15:22:28.922Z,19.20
2023-03-13T15:25:07.684Z,19.20
2023-03-13T15:27:36.793Z,19.20
2023-03-13T15:30:06.488Z,19.20
2023-03-13T15:32:39.186Z,19.10
2023-03-13T15:35:27.880Z,19.10
2023-03-13T15:40:27.859Z,18.80
2023-03-13T15:42:56.874Z,17.90
2023-03-13T15:47:53.651Z,15.40
2023-03-13T15:50:25.531Z,14.60
2023-03-13T15:55:22.719Z,13.20
2023-03-13T15:57:52.357Z,12.60
2023-03-13T16:00:24.310Z,12.30
2023-03-13T16:10:25.479Z,11.70
2023-03-13T16:12:55.755Z,11.70
2023-03-13T16:20:23.615Z,11.70
2023-03-13T16:25:22.599Z,11.80
2023-03-13T16:30:26.986Z,12.00
2023-03-13T16:32:55.300Z,12.10
2023-03-13T16:35:26.558Z,12.10
2023-03-13T16:40:26.308Z,12.30
2023-03-13T16:42:54.666Z,12.30
2023-03-13T16:45:24.955Z,12.20
2023-03-13T16:50:28.011Z,12.00
2023-03-13T16:52:56.528Z,12.00
2023-03-13T17:02:58.525Z,11.90
2023-03-13T17:05:28.484Z,11.90
2023-03-13T17:10:28.478Z,11.90
2023-03-13T17:15:27.918Z,11.90
2023-03-13T17:17:56.496Z,11.90
2023-03-13T17:20:28.140Z,11.90
2023-03-13T17:30:27.716Z,12.00
2023-03-13T17:35:25.347Z,12.00
2023-03-13T17:40:26.652Z,12.10
2023-03-13T17:42:55.342Z,12.10
2023-03-13T17:47:54.339Z,12.10
2023-03-13T17:50:26.334Z,12.20
2023-03-13T17:52:55.386Z,12.20
2023-03-13T18:00:25.327Z,12.20
2023-03-13T18:02:54.925Z,12.20
2023-03-13T18:05:23.641Z,12.10
2023-03-13T18:10:24.432Z,12.10
2023-03-13T18:15:24.128Z,12.00
2023-03-13T18:20:24.574Z,11.90
2023-03-13T18:22:53.016Z,11.90
2023-03-13T18:30:20.791Z,11.90
2023-03-13T18:35:19.756Z,12.00
2023-03-13T18:37:49.751Z,11.80
2023-03-13T18:40:21.668Z,11.80
2023-03-13T18:45:21.491Z,11.80
2023-03-13T18:50:25.095Z,11.80
2023-03-13T18:52:55.356Z,11.80
2023-03-13T18:57:52.946Z,11.80
2023-03-13T19:00:24.502Z,11.90
2023-03-13T19:02:53.193Z,11.80
2023-03-13T19:05:23.555Z,11.80
2023-03-13T19:07:52.214Z,11.80
2023-03-13T19:10:24.418Z,11.80
2023-03-13T19:15:25.593Z,11.70
2023-03-13T19:17:56.042Z,11.70
2023-03-13T19:20:25.786Z,11.50
2023-03-13T19:30:23.682Z,11.30
2023-03-13T19:37:51.790Z,11.00
2023-03-13T19:40:23.131Z,10.90
2023-03-13T19:50:21.581Z,10.70
2023-03-13T19:55:20.265Z,10.50
2023-03-13T19:57:48.494Z,10.40
2023-03-13T20:00:22.977Z,10.40
2023-03-13T20:07:54.157Z,10.30
2023-03-13T20:10:22.923Z,10.20
2023-03-13T20:20:19.675Z,10.10
2023-03-13T20:25:18.144Z,10.10
2023-03-13T20:30:14.977Z,10.10
2023-03-13T20:32:53.063Z,10.10
2023-03-13T20:35:28.673Z,10.10
2023-03-13T20:40:28.423Z,10.10
2023-03-13T20:47:56.698Z,10.20
2023-03-13T20:52:53.719Z,10.20
2023-03-13T20:57:51.805Z,10.30
2023-03-13T21:00:21.454Z,10.30
2023-03-13T21:05:18.684Z,10.30
2023-03-13T21:10:18.056Z,10.30
2023-03-13T21:15:16.358Z,10.40
2023-03-13T21:20:13.768Z,10.40
2023-03-13T21:22:44.518Z,10.40
2023-03-13T21:25:13.195Z,10.40
2023-03-13T21:27:43.669Z,10.40
2023-03-13T21:30:17.514Z,10.40
2023-03-13T21:32:46.894Z,10.40
2023-03-13T21:35:16.538Z,10.50
2023-03-13T21:37:45.282Z,10.40
2023-03-13T21:40:14.336Z,10.50
2023-03-13T21:42:42.621Z,10.50
2023-03-13T21:45:12.508Z,7.60
2023-03-13T21:47:42.117Z,10.60
2023-03-13T21:50:13.240Z,10.60
2023-03-13T21:55:13.759Z,10.60
2023-03-13T22:00:13.924Z,10.60
2023-03-13T22:02:44.161Z,10.80
2023-03-13T22:05:12.871Z,10.60
2023-03-13T22:07:41.157Z,10.60
2023-03-13T22:10:10.805Z,10.60
2023-03-13T22:12:39.079Z,10.60
2023-03-13T22:15:09.290Z,10.60
2023-03-13T22:20:09.981Z,10.50
2023-03-13T22:25:07.816Z,10.50
2023-03-13T22:37:32.840Z,10.50
2023-03-13T22:47:27.038Z,10.40
2023-03-13T22:49:55.244Z,10.40
2023-03-13T22:55:01.362Z,10.40
2023-03-13T23:02:29.654Z,10.40
2023-03-13T23:07:32.192Z,10.40
2023-03-13T23:10:01.813Z,10.40
2023-03-13T23:15:00.104Z,10.40
2023-03-13T23:25:02.632Z,10.60
2023-03-13T23:32:36.748Z,10.50
2023-03-13T23:35:06.338Z,10.60
2023-03-13T23:37:34.873Z,10.60
2023-03-13T23:40:11.835Z,10.70
2023-03-13T23:45:09.517Z,10.70
2023-03-13T23:50:07.404Z,10.70
2023-03-13T23:52:35.987Z,10.70
2023-03-13T23:55:06.851Z,10.60
